createdAt,value
2019-04-11T00:01:32.537Z,4.93
2019-04-11T00:03:51.466Z,4.93
2019-04-11T00:06:19.788Z,4.88
2019-04-11T00:08:48.193Z,4.86
2019-04-11T00:11:17.464Z,4.84
2019-04-11T00:13:45.945Z,4.84
2019-04-11T00:16:15.245Z,4.85
2019-04-11T00:18:43.519Z,4.82
2019-04-11T00:21:12.842Z,4.78
2019-04-11T00:23:41.191Z,4.72
2019-04-11T00:26:09.502Z,4.64
2019-04-11T00:28:38.063Z,4.60
2019-04-11T00:31:06.429Z,4.53
2019-04-11T00:33:34.667Z,4.53
2019-04-11T00:36:04.108Z,4.52
2019-04-11T00:38:32.627Z,4.53
2019-04-11T00:41:01.662Z,4.52
2019-04-11T00:43:36.802Z,4.48
2019-04-11T00:46:01.496Z,4.39
2019-04-11T00:48:30.226Z,4.33
2019-04-11T00:50:59.317Z,4.30
2019-04-11T00:53:27.844Z,4.26
2019-04-11T00:55:56.141Z,4.29
2019-04-11T00:58:25.561Z,4.26
2019-04-11T01:00:55.336Z,4.25
2019-04-11T01:03:24.281Z,4.20
2019-04-11T01:05:53.999Z,4.15
2019-04-11T01:08:23.965Z,4.11
2019-04-11T01:10:52.267Z,4.11
2019-04-11T01:13:20.960Z,4.03
2019-04-11T01:16:07.013Z,4.05
2019-04-11T01:18:36.190Z,3.99
2019-04-11T01:21:04.557Z,3.95
2019-04-11T01:23:33.242Z,3.92
2019-04-11T01:26:01.621Z,3.92
2019-04-11T01:28:31.005Z,3.97
2019-04-11T01:31:01.124Z,3.95
2019-04-11T01:33:29.712Z,3.91
2019-04-11T01:35:57.979Z,3.86
2019-04-11T01:38:26.608Z,3.78
2019-04-11T01:40:56.091Z,3.75
2019-04-11T01:43:24.385Z,3.81
2019-04-11T01:45:53.591Z,3.78
2019-04-11T01:48:23.785Z,3.78
2019-04-11T01:50:52.071Z,3.81
2019-04-11T01:53:20.719Z,3.81
2019-04-11T01:55:50.437Z,3.82
2019-04-11T01:58:18.797Z,3.81
2019-04-11T02:00:50.815Z,3.74
2019-04-11T02:03:21.195Z,3.76
2019-04-11T02:05:49.591Z,3.74
2019-04-11T02:08:17.890Z,3.68
2019-04-11T02:10:46.565Z,3.66
2019-04-11T02:13:15.399Z,3.59
2019-04-11T02:15:44.214Z,3.53
2019-04-11T02:18:13.111Z,3.46
2019-04-11T02:20:41.376Z,3.42
2019-04-11T02:23:21.456Z,3.39
2019-04-11T02:26:10.076Z,3.33
2019-04-11T02:28:40.990Z,3.29
2019-04-11T02:31:11.551Z,3.31
2019-04-11T02:33:41.408Z,3.29
2019-04-11T02:36:11.755Z,3.23
2019-04-11T02:38:41.264Z,3.18
2019-04-11T02:41:10.606Z,3.21
2019-04-11T02:43:42.139Z,3.23
2019-04-11T02:46:19.851Z,3.29
2019-04-11T02:48:40.660Z,3.31
2019-04-11T02:51:09.848Z,3.34
2019-04-11T02:53:38.937Z,3.29
2019-04-11T02:56:09.317Z,3.28
2019-04-11T02:58:39.087Z,3.26
2019-04-11T03:01:09.591Z,3.27
2019-04-11T03:03:39.420Z,3.26
2019-04-11T03:06:09.247Z,3.25
2019-04-11T03:08:38.796Z,3.23
2019-04-11T03:11:10.676Z,3.22
2019-04-11T03:13:38.440Z,3.20
2019-04-11T03:16:23.804Z,3.15
2019-04-11T03:18:55.010Z,3.13
2019-04-11T03:21:13.771Z,3.13
2019-04-11T03:23:39.501Z,3.15
2019-04-11T03:26:09.763Z,3.13
2019-04-11T03:28:38.925Z,3.13
2019-04-11T03:31:42.259Z,3.10
2019-04-11T03:39:02.518Z,3.07
2019-04-11T03:41:25.291Z,3.02
2019-04-11T03:43:50.864Z,3.01
2019-04-11T03:46:29.202Z,2.99
2019-04-11T03:48:53.369Z,2.96
2019-04-11T03:51:11.597Z,2.92
2019-04-11T03:53:41.157Z,2.91
2019-04-11T03:56:12.007Z,2.94
2019-04-11T03:58:41.797Z,2.94
2019-04-11T04:01:11.601Z,2.87
2019-04-11T04:03:42.400Z,2.86
2019-04-11T04:06:10.774Z,2.88
2019-04-11T04:08:39.266Z,2.83
2019-04-11T04:11:12.550Z,2.79
2019-04-11T04:13:47.604Z,2.72
2019-04-11T04:16:40.361Z,2.66
2019-04-11T04:19:22.680Z,2.69
2019-04-11T04:21:55.179Z,2.69
2019-04-11T04:24:37.896Z,2.67
2019-04-11T04:27:07.032Z,2.63
2019-04-11T04:29:37.030Z,2.57
2019-04-11T04:32:05.980Z,2.54
2019-04-11T04:34:36.057Z,2.51
2019-04-11T04:37:05.897Z,2.52
2019-04-11T04:39:37.027Z,2.56
2019-04-11T04:42:12.629Z,2.62
2019-04-11T04:44:35.764Z,2.63
2019-04-11T04:47:13.630Z,2.65
2019-04-11T04:49:34.557Z,2.65
2019-04-11T04:52:05.918Z,2.66
2019-04-11T04:54:36.147Z,2.64
2019-04-11T04:57:05.028Z,2.66
2019-04-11T04:59:34.127Z,2.67
2019-04-11T05:02:03.917Z,2.66
2019-04-11T05:04:33.747Z,2.63
2019-04-11T05:07:03.234Z,2.62
2019-04-11T05:09:32.060Z,2.67
2019-04-11T05:12:01.414Z,2.75
2019-04-11T05:14:31.440Z,2.77
2019-04-11T05:17:00.450Z,2.80
2019-04-11T05:19:29.953Z,2.84
2019-04-11T05:21:59.774Z,2.88
2019-04-11T05:24:28.517Z,2.91
2019-04-11T05:26:57.880Z,2.93
2019-04-11T05:29:27.187Z,2.95
2019-04-11T05:31:56.668Z,3.03
2019-04-11T05:34:25.853Z,3.20
2019-04-11T05:36:55.211Z,3.30
2019-04-11T05:39:23.995Z,3.32
2019-04-11T05:41:52.294Z,3.35
2019-04-11T05:44:20.967Z,3.36
2019-04-11T05:46:55.815Z,3.39
2019-04-11T05:49:22.827Z,3.48
2019-04-11T05:51:58.137Z,3.50
2019-04-11T05:54:28.109Z,3.47
2019-04-11T05:56:59.562Z,3.47
2019-04-11T05:59:30.602Z,3.48
2019-04-11T06:02:10.923Z,3.52
2019-04-11T06:04:40.981Z,3.65
2019-04-11T06:07:12.768Z,3.70
2019-04-11T06:09:44.072Z,3.73
2019-04-11T06:12:30.274Z,3.86
2019-04-11T06:15:06.218Z,3.94
2019-04-11T06:17:34.499Z,3.97
2019-04-11T06:20:08.247Z,3.94
2019-04-11T06:22:38.528Z,3.88
2019-04-11T06:25:23.615Z,3.85
2019-04-11T06:27:55.791Z,3.85
2019-04-11T06:30:26.382Z,4.01
2019-04-11T06:33:12.240Z,4.01
2019-04-11T06:35:52.248Z,4.00
2019-04-11T06:38:22.662Z,4.14
2019-04-11T06:40:58.364Z,4.22
2019-04-11T06:43:44.535Z,4.23
2019-04-11T06:46:18.730Z,4.26
2019-04-11T06:48:55.910Z,4.37
2019-04-11T06:51:26.123Z,4.57
2019-04-11T06:54:12.743Z,4.58
2019-04-11T06:56:45.508Z,4.60
2019-04-11T06:59:16.389Z,4.75
2019-04-11T07:01:46.016Z,4.81
2019-04-11T07:04:15.954Z,4.81
2019-04-11T07:06:46.039Z,4.87
2019-04-11T07:09:16.705Z,4.92
2019-04-11T07:11:48.409Z,4.93
2019-04-11T07:14:24.788Z,5.03
2019-04-11T07:17:13.453Z,4.98
2019-04-11T07:20:00.123Z,4.98
2019-04-11T07:22:46.710Z,5.04
2019-04-11T07:25:22.610Z,5.08
2019-04-11T07:27:53.221Z,5.18
2019-04-11T07:30:39.699Z,5.23
2019-04-11T07:33:26.714Z,5.29
2019-04-11T07:36:14.543Z,5.30
2019-04-11T07:38:59.888Z,5.34
2019-04-11T07:41:39.935Z,5.37
2019-04-11T07:44:10.956Z,5.44
2019-04-11T07:46:58.241Z,5.57
2019-04-11T07:49:35.046Z,5.66
2019-04-11T07:52:06.722Z,5.71
2019-04-11T07:54:35.442Z,5.74
2019-04-11T07:57:05.523Z,5.80
2019-04-11T07:59:37.884Z,5.90
2019-04-11T08:02:08.792Z,6.03
2019-04-11T08:04:55.624Z,6.21
2019-04-11T08:07:42.515Z,6.25
2019-04-11T08:10:16.224Z,6.31
2019-04-11T08:12:46.181Z,6.31
2019-04-11T08:15:34.211Z,6.30
2019-04-11T08:18:14.622Z,6.35
2019-04-11T08:20:57.454Z,6.51
2019-04-11T08:23:27.699Z,6.61
2019-04-11T08:26:14.043Z,6.75
2019-04-11T08:28:43.503Z,6.80
2019-04-11T08:31:22.000Z,6.84
2019-04-11T08:33:53.043Z,6.88
2019-04-11T08:36:24.042Z,6.88
2019-04-11T08:38:53.026Z,6.97
2019-04-11T08:41:23.237Z,6.97
2019-04-11T08:43:51.665Z,7.04
2019-04-11T08:46:22.615Z,7.07
2019-04-11T08:49:09.795Z,7.13
2019-04-11T08:51:39.121Z,7.12
2019-04-11T08:54:25.819Z,7.20
2019-04-11T08:56:55.662Z,7.17
2019-04-11T08:59:31.341Z,7.21
2019-04-11T09:02:00.404Z,7.23
2019-04-11T09:04:46.408Z,7.28
2019-04-11T09:07:17.020Z,7.31
2019-04-11T09:10:04.106Z,7.32
2019-04-11T09:12:32.418Z,7.36
2019-04-11T09:15:05.399Z,7.44
2019-04-11T09:17:36.558Z,7.56
2019-04-11T09:20:24.720Z,7.66
2019-04-11T09:22:55.465Z,7.66
2019-04-11T09:25:41.633Z,7.64
2019-04-11T09:28:18.000Z,7.72
2019-04-11T09:30:57.090Z,7.72
2019-04-11T09:33:39.710Z,7.78
2019-04-11T09:36:29.163Z,7.86
2019-04-11T09:39:08.863Z,7.96
2019-04-11T09:41:55.032Z,8.06
2019-04-11T09:44:24.993Z,8.11
2019-04-11T09:47:01.360Z,8.17
2019-04-11T09:49:37.683Z,8.30
2019-04-11T09:52:08.764Z,8.47
2019-04-11T09:54:54.682Z,8.56
2019-04-11T09:57:30.203Z,8.77
2019-04-11T10:00:12.364Z,8.88
2019-04-11T10:02:48.331Z,8.97
2019-04-11T10:05:22.366Z,8.98
2019-04-11T10:07:52.665Z,9.10
2019-04-11T10:10:28.917Z,9.29
2019-04-11T10:13:18.620Z,9.43
2019-04-11T10:15:51.609Z,9.47
2019-04-11T10:18:36.576Z,9.63
2019-04-11T10:21:01.279Z,9.74
2019-04-11T10:23:32.567Z,9.73
2019-04-11T10:26:01.462Z,9.77
2019-04-11T10:28:31.466Z,9.76
2019-04-11T10:31:10.653Z,9.69
2019-04-11T10:33:50.022Z,9.67
2019-04-11T10:36:23.145Z,9.75
2019-04-11T10:39:09.696Z,9.96
2019-04-11T10:41:40.042Z,9.98
2019-04-11T10:44:09.664Z,10.00
2019-04-11T10:46:56.331Z,10.12
2019-04-11T10:49:30.387Z,10.18
2019-04-11T10:52:00.440Z,10.21
2019-04-11T10:54:31.037Z,10.36
2019-04-11T10:57:05.599Z,10.55
2019-04-11T10:59:35.654Z,10.68
2019-04-11T11:02:06.646Z,10.68
2019-04-11T11:04:39.010Z,10.30
2019-04-11T11:07:10.188Z,10.12
2019-04-11T11:09:42.040Z,10.05
2019-04-11T11:12:21.296Z,10.09
2019-04-11T11:15:07.207Z,10.21
2019-04-11T11:18:20.506Z,10.36
2019-04-11T11:20:39.080Z,10.18
2019-04-11T11:23:21.128Z,10.17
2019-04-11T11:25:57.036Z,10.12
2019-04-11T11:28:26.991Z,10.39
2019-04-11T11:31:03.202Z,10.45
2019-04-11T11:33:34.108Z,10.46
2019-04-11T11:36:21.365Z,10.49
2019-04-11T11:38:52.298Z,10.62
2019-04-11T11:41:38.979Z,10.59
2019-04-11T11:44:09.736Z,10.56
2019-04-11T11:46:59.861Z,10.52
2019-04-11T11:49:41.783Z,10.35
2019-04-11T11:52:03.713Z,10.26
2019-04-11T11:54:33.666Z,10.21
2019-04-11T11:57:04.591Z,10.30
2019-04-11T11:59:48.205Z,10.28
2019-04-11T12:02:28.470Z,10.24
2019-04-11T12:05:02.492Z,9.99
2019-04-11T12:07:37.799Z,10.02
2019-04-11T12:10:17.377Z,10.09
2019-04-11T12:13:08.023Z,10.04
2019-04-11T12:15:53.332Z,10.12
2019-04-11T12:18:26.747Z,10.22
2019-04-11T12:21:05.810Z,10.34
2019-04-11T12:23:46.646Z,10.36
2019-04-11T12:26:07.628Z,10.24
2019-04-11T12:28:50.030Z,10.26
2019-04-11T12:31:19.506Z,10.29
2019-04-11T12:34:06.210Z,10.26
2019-04-11T12:36:37.049Z,10.24
2019-04-11T12:39:09.060Z,10.23
2019-04-11T12:41:39.278Z,10.22
2019-04-11T12:44:20.835Z,10.36
2019-04-11T12:46:53.634Z,10.36
2019-04-11T12:49:26.295Z,10.30
2019-04-11T12:52:12.301Z,10.42
2019-04-11T12:54:42.383Z,10.59
2019-04-11T12:57:28.492Z,10.68
2019-04-11T13:00:01.173Z,10.73
2019-04-11T13:02:47.747Z,10.81
2019-04-11T13:05:17.726Z,10.84
2019-04-11T13:07:47.647Z,10.77
2019-04-11T13:10:16.529Z,10.77
2019-04-11T13:13:01.925Z,10.72
2019-04-11T13:15:31.866Z,10.91
2019-04-11T13:18:01.829Z,10.99
2019-04-11T13:20:43.544Z,10.97
2019-04-11T13:23:31.894Z,10.95
2019-04-11T13:26:10.453Z,11.00
2019-04-11T13:28:40.329Z,10.91
2019-04-11T13:31:16.580Z,10.78
2019-04-11T13:33:45.073Z,10.74
2019-04-11T13:36:27.056Z,10.71
2019-04-11T13:38:55.643Z,10.66
2019-04-11T13:41:31.374Z,10.59
2019-04-11T13:44:00.507Z,10.55
2019-04-11T13:46:36.607Z,10.51
2019-04-11T13:49:23.431Z,10.60
2019-04-11T13:52:02.541Z,10.52
2019-04-11T13:54:32.474Z,10.39
2019-04-11T13:57:02.737Z,10.31
2019-04-11T13:59:35.271Z,10.28
2019-04-11T14:02:09.116Z,10.36
2019-04-11T14:04:57.796Z,10.46
2019-04-11T14:07:30.309Z,10.52
2019-04-11T14:10:09.275Z,10.28
2019-04-11T14:12:38.549Z,10.20
2019-04-11T14:15:11.943Z,10.16
2019-04-11T14:17:45.048Z,10.22
2019-04-11T14:20:29.195Z,10.33
2019-04-11T14:23:05.347Z,10.23
2019-04-11T14:25:48.085Z,10.35
2019-04-11T14:28:18.035Z,10.43
2019-04-11T14:30:51.745Z,10.22
2019-04-11T14:33:18.378Z,10.31
2019-04-11T14:36:00.334Z,10.38
2019-04-11T14:38:32.041Z,10.40
2019-04-11T14:41:09.823Z,10.30
2019-04-11T14:43:43.815Z,10.28
2019-04-11T14:46:15.859Z,10.43
2019-04-11T14:48:48.820Z,10.47
2019-04-11T14:51:27.867Z,10.31
2019-04-11T14:54:00.622Z,10.33
2019-04-11T14:56:33.394Z,10.29
2019-04-11T14:59:23.889Z,10.35
2019-04-11T15:01:53.226Z,10.42
2019-04-11T15:04:26.230Z,10.52
2019-04-11T15:06:56.186Z,10.50
2019-04-11T15:09:41.162Z,10.52
2019-04-11T15:12:17.835Z,10.25
2019-04-11T15:14:51.936Z,10.13
2019-04-11T15:17:21.909Z,10.10
2019-04-11T15:20:02.656Z,10.08
2019-04-11T15:22:50.738Z,10.09
2019-04-11T15:25:20.679Z,10.11
2019-04-11T15:27:56.361Z,9.98
2019-04-11T15:30:38.450Z,9.96
2019-04-11T15:33:24.917Z,9.98
2019-04-11T15:35:58.595Z,10.04
2019-04-11T15:38:45.499Z,10.26
2019-04-11T15:41:13.822Z,10.50
2019-04-11T15:43:59.700Z,10.61
2019-04-11T15:46:29.782Z,10.47
2019-04-11T15:49:21.893Z,10.32
2019-04-11T15:51:47.775Z,10.31
2019-04-11T15:54:17.750Z,10.38
2019-04-11T15:56:53.398Z,10.01
2019-04-11T15:59:38.745Z,9.94
2019-04-11T16:02:09.015Z,9.97
2019-04-11T16:04:47.807Z,10.07
2019-04-11T16:07:37.581Z,10.07
2019-04-11T16:10:07.237Z,10.07
2019-04-11T16:12:55.654Z,9.92
2019-04-11T16:15:25.892Z,9.74
2019-04-11T16:17:57.932Z,9.59
2019-04-11T16:20:26.160Z,9.50
2019-04-11T16:22:56.109Z,9.43
2019-04-11T16:25:24.422Z,9.45
2019-04-11T16:28:10.924Z,9.43
2019-04-11T16:30:43.616Z,9.42
2019-04-11T16:33:13.543Z,9.38
2019-04-11T16:35:49.766Z,9.46
2019-04-11T16:38:29.012Z,9.45
2019-04-11T16:41:07.852Z,9.33
2019-04-11T16:43:37.561Z,9.24
2019-04-11T16:46:24.580Z,9.22
2019-04-11T16:48:55.650Z,9.21
2019-04-11T16:51:30.690Z,9.10
2019-04-11T16:53:52.574Z,8.99
2019-04-11T16:56:21.359Z,8.95
2019-04-11T16:58:50.287Z,8.74
2019-04-11T17:01:20.751Z,8.68
2019-04-11T17:03:48.744Z,8.64
2019-04-11T17:06:36.913Z,8.52
2019-04-11T17:09:14.235Z,8.51
2019-04-11T17:11:42.519Z,8.49
2019-04-11T17:14:11.978Z,8.36
2019-04-11T17:16:40.305Z,8.36
2019-04-11T17:19:08.623Z,8.33
2019-04-11T17:21:43.126Z,8.28
2019-04-11T17:24:07.317Z,8.25
2019-04-11T17:26:35.622Z,8.18
2019-04-11T17:29:03.949Z,8.13
2019-04-11T17:31:33.213Z,8.07
2019-04-11T17:34:02.425Z,8.03
2019-04-11T17:36:33.518Z,7.97
2019-04-11T17:39:01.100Z,7.91
2019-04-11T17:41:29.415Z,7.88
2019-04-11T17:43:57.719Z,7.81
2019-04-11T17:46:26.927Z,7.76
2019-04-11T17:48:56.122Z,7.72
2019-04-11T17:51:24.525Z,7.67
2019-04-11T17:53:54.985Z,7.66
2019-04-11T17:56:24.816Z,7.63
2019-04-11T17:58:52.847Z,7.58
2019-04-11T18:01:21.214Z,7.54
2019-04-11T18:03:49.612Z,7.52
2019-04-11T18:06:18.012Z,7.46
2019-04-11T18:08:46.724Z,7.40
2019-04-11T18:11:15.526Z,7.36
2019-04-11T18:13:43.842Z,7.31
2019-04-11T18:16:12.161Z,7.26
2019-04-11T18:18:40.480Z,7.20
2019-04-11T18:21:08.864Z,7.14
2019-04-11T18:23:37.519Z,7.10
2019-04-11T18:26:05.968Z,7.08
2019-04-11T18:28:34.253Z,7.05
2019-04-11T18:31:02.592Z,7.01
2019-04-11T18:33:32.295Z,6.99
2019-04-11T18:36:02.212Z,6.95
2019-04-11T18:38:32.062Z,6.91
2019-04-11T18:41:01.054Z,6.86
2019-04-11T18:43:29.388Z,6.82
2019-04-11T18:45:57.684Z,6.79
2019-04-11T18:48:26.511Z,6.75
2019-04-11T18:50:54.860Z,6.73
2019-04-11T18:53:23.177Z,6.71
2019-04-11T18:55:51.483Z,6.69
2019-04-11T18:58:19.781Z,6.68
2019-04-11T19:00:48.427Z,6.68
2019-04-11T19:03:17.034Z,6.66
2019-04-11T19:05:45.688Z,6.63
2019-04-11T19:08:13.976Z,6.64
2019-04-11T19:10:42.917Z,6.67
2019-04-11T19:13:12.329Z,6.66
2019-04-11T19:15:40.641Z,6.67
2019-04-11T19:18:09.011Z,6.68
2019-04-11T19:20:37.330Z,6.70
2019-04-11T19:23:07.638Z,6.68
2019-04-11T19:25:35.640Z,6.63
2019-04-11T19:28:03.941Z,6.59
2019-04-11T19:30:32.258Z,6.56
2019-04-11T19:33:00.569Z,6.57
2019-04-11T19:35:28.877Z,6.57
2019-04-11T19:37:57.877Z,6.58
2019-04-11T19:40:26.474Z,6.56
2019-04-11T19:42:54.798Z,6.55
2019-04-11T19:45:23.376Z,6.49
2019-04-11T19:47:52.255Z,6.52
2019-04-11T19:50:21.221Z,6.51
2019-04-11T19:52:49.664Z,6.51
2019-04-11T19:55:34.500Z,6.51
2019-04-11T19:58:01.660Z,6.52
2019-04-11T20:00:30.501Z,6.47
2019-04-11T20:02:58.800Z,6.43
2019-04-11T20:05:27.176Z,6.42
2019-04-11T20:07:55.535Z,6.38
2019-04-11T20:10:23.840Z,6.30
2019-04-11T20:12:52.172Z,6.27
2019-04-11T20:15:20.771Z,6.17
2019-04-11T20:17:52.036Z,6.07
2019-04-11T20:20:19.678Z,6.06
2019-04-11T20:22:58.410Z,6.04
2019-04-11T20:25:17.998Z,5.97
2019-04-11T20:27:48.161Z,5.90
2019-04-11T20:30:16.540Z,5.86
2019-04-11T20:32:44.827Z,5.89
2019-04-11T20:35:13.641Z,5.86
2019-04-11T20:37:44.600Z,5.85
2019-04-11T20:40:12.432Z,5.83
2019-04-11T20:42:40.969Z,5.81
2019-04-11T20:45:09.523Z,5.78
2019-04-11T20:47:37.821Z,5.79
2019-04-11T20:50:07.545Z,5.79
2019-04-11T20:52:36.158Z,5.79
2019-04-11T20:55:08.979Z,5.73
2019-04-11T20:57:35.978Z,5.72
2019-04-11T21:00:06.224Z,5.75
2019-04-11T21:02:34.816Z,5.68
2019-04-11T21:05:03.119Z,5.65
2019-04-11T21:07:32.518Z,5.60
2019-04-11T21:10:03.722Z,5.60
2019-04-11T21:12:31.189Z,5.57
2019-04-11T21:14:59.777Z,5.54
2019-04-11T21:17:28.061Z,5.51
2019-04-11T21:19:56.376Z,5.43
2019-04-11T21:22:24.820Z,5.40
2019-04-11T21:24:53.275Z,5.39
2019-04-11T21:27:21.595Z,5.38
2019-04-11T21:29:49.903Z,5.36
2019-04-11T21:32:18.544Z,5.40
2019-04-11T21:34:47.112Z,5.46
2019-04-11T21:37:15.424Z,5.52
2019-04-11T21:39:43.736Z,5.56
2019-04-11T21:42:12.033Z,5.57
2019-04-11T21:44:40.361Z,5.58
2019-04-11T21:47:09.008Z,5.60
2019-04-11T21:49:37.766Z,5.62
2019-04-11T21:52:06.089Z,5.67
2019-04-11T21:54:34.379Z,5.66
2019-04-11T21:57:03.032Z,5.63
2019-04-11T21:59:31.346Z,5.68
2019-04-11T22:01:59.813Z,5.67
2019-04-11T22:04:31.034Z,5.73
2019-04-11T22:07:00.671Z,5.79
2019-04-11T22:09:28.632Z,5.79
2019-04-11T22:11:56.942Z,5.80
2019-04-11T22:14:25.702Z,5.78
2019-04-11T22:16:55.050Z,5.80
2019-04-11T22:19:23.763Z,5.77
2019-04-11T22:21:52.048Z,5.77
2019-04-11T22:24:20.345Z,5.78
2019-04-11T22:26:50.627Z,5.78
2019-04-11T22:29:18.704Z,5.82
2019-04-11T22:31:47.010Z,5.84
2019-04-11T22:34:29.080Z,5.88
2019-04-11T22:36:59.603Z,5.90
2019-04-11T22:39:28.950Z,5.94
2019-04-11T22:41:57.509Z,5.94
2019-04-11T22:44:25.847Z,5.91
2019-04-11T22:46:54.136Z,5.93
2019-04-11T22:49:22.441Z,5.91
2019-04-11T22:51:50.738Z,5.95
2019-04-11T22:54:19.316Z,5.93
2019-04-11T22:56:47.611Z,5.93
2019-04-11T22:59:15.935Z,5.93
2019-04-11T23:01:46.923Z,5.92
2019-04-11T23:04:17.152Z,5.90
2019-04-11T23:06:47.205Z,5.87
2019-04-11T23:09:16.591Z,5.86
2019-04-11T23:11:45.377Z,5.82
2019-04-11T23:14:15.790Z,5.84
2019-04-11T23:16:44.211Z,5.84
2019-04-11T23:19:14.357Z,5.82
2019-04-11T23:21:42.769Z,5.86
2019-04-11T23:24:12.248Z,5.88
2019-04-11T23:26:40.699Z,5.83
2019-04-11T23:29:08.997Z,5.83
2019-04-11T23:31:37.323Z,5.79
2019-04-11T23:34:05.614Z,5.79
2019-04-11T23:36:33.929Z,5.80
2019-04-11T23:39:02.224Z,5.78
2019-04-11T23:41:30.546Z,5.75
2019-04-11T23:43:58.835Z,5.77
2019-04-11T23:46:27.437Z,5.76
2019-04-11T23:48:55.761Z,5.76
2019-04-11T23:51:26.340Z,5.76
2019-04-11T23:53:54.052Z,5.77
2019-04-11T23:56:22.336Z,5.75
2019-04-11T23:58:50.649Z,5.75
